sensor_id;sensor_type;location;lat;lon;timestamp;P1;durP1;ratioP1;P2;durP2;ratioP2
7233;SDS011;3658;47.992;10.158;2023-02-03T00:02:20;1.37;;;1.20;;
7233;SDS011;3658;47.992;10.158;2023-02-03T00:04:47;1.60;;;1.30;;
7233;SDS011;3658;47.992;10.158;2023-02-03T00:07:14;1.93;;;1.43;;
7233;SDS011;3658;47.992;10.158;2023-02-03T00:09:41;1.30;;;1.00;;
7233;SDS011;3658;47.992;10.158;2023-02-03T00:12:08;1.30;;;1.07;;
7233;SDS011;3658;47.992;10.158;2023-02-03T00:14:36;2.80;;;1.10;;
7233;SDS011;3658;47.992;10.158;2023-02-03T00:17:03;1.03;;;1.00;;
7233;SDS011;3658;47.992;10.158;2023-02-03T00:19:30;1.83;;;1.03;;
7233;SDS011;3658;47.992;10.158;2023-02-03T00:21:57;1.17;;;1.07;;
7233;SDS011;3658;47.992;10.158;2023-02-03T00:24:24;1.03;;;0.93;;
7233;SDS011;3658;47.992;10.158;2023-02-03T00:26:51;1.30;;;1.20;;
7233;SDS011;3658;47.992;10.158;2023-02-03T00:29:18;1.50;;;1.20;;
7233;SDS011;3658;47.992;10.158;2023-02-03T00:31:51;1.20;;;1.10;;
7233;SDS011;3658;47.992;10.158;2023-02-03T00:34:18;1.40;;;1.03;;
7233;SDS011;3658;47.992;10.158;2023-02-03T00:36:46;1.20;;;1.10;;
7233;SDS011;3658;47.992;10.158;2023-02-03T00:39:13;1.27;;;1.10;;
7233;SDS011;3658;47.992;10.158;2023-02-03T00:41:40;1.00;;;0.90;;
7233;SDS011;3658;47.992;10.158;2023-02-03T00:44:07;1.17;;;1.00;;
7233;SDS011;3658;47.992;10.158;2023-02-03T00:46:34;1.20;;;1.10;;
7233;SDS011;3658;47.992;10.158;2023-02-03T00:49:03;1.27;;;1.00;;
7233;SDS011;3658;47.992;10.158;2023-02-03T00:51:32;1.00;;;1.00;;
7233;SDS011;3658;47.992;10.158;2023-02-03T00:53:59;1.63;;;1.23;;
7233;SDS011;3658;47.992;10.158;2023-02-03T00:56:26;1.33;;;1.10;;
7233;SDS011;3658;47.992;10.158;2023-02-03T00:58:53;1.27;;;1.17;;
7233;SDS011;3658;47.992;10.158;2023-02-03T01:01:20;1.10;;;1.00;;
7233;SDS011;3658;47.992;10.158;2023-02-03T01:03:47;1.00;;;0.90;;
7233;SDS011;3658;47.992;10.158;2023-02-03T01:06:17;0.97;;;0.90;;
7233;SDS011;3658;47.992;10.158;2023-02-03T01:08:45;1.33;;;1.10;;
7233;SDS011;3658;47.992;10.158;2023-02-03T01:11:13;0.80;;;0.80;;
7233;SDS011;3658;47.992;10.158;2023-02-03T01:13:41;1.07;;;0.93;;
7233;SDS011;3658;47.992;10.158;2023-02-03T01:16:09;1.33;;;1.10;;
7233;SDS011;3658;47.992;10.158;2023-02-03T01:18:37;1.20;;;0.90;;
7233;SDS011;3658;47.992;10.158;2023-02-03T01:21:05;1.30;;;1.20;;
7233;SDS011;3658;47.992;10.158;2023-02-03T01:23:35;1.40;;;1.07;;
7233;SDS011;3658;47.992;10.158;2023-02-03T01:26:03;1.43;;;1.27;;
7233;SDS011;3658;47.992;10.158;2023-02-03T01:28:31;1.27;;;1.07;;
7233;SDS011;3658;47.992;10.158;2023-02-03T01:31:07;1.70;;;1.10;;
7233;SDS011;3658;47.992;10.158;2023-02-03T01:33:35;1.27;;;1.17;;
7233;SDS011;3658;47.992;10.158;2023-02-03T01:36:05;1.43;;;1.30;;
7233;SDS011;3658;47.992;10.158;2023-02-03T01:38:32;1.10;;;1.00;;
7233;SDS011;3658;47.992;10.158;2023-02-03T01:41:01;0.90;;;0.90;;
7233;SDS011;3658;47.992;10.158;2023-02-03T01:43:30;1.20;;;1.10;;
7233;SDS011;3658;47.992;10.158;2023-02-03T01:45:58;1.20;;;1.00;;
7233;SDS011;3658;47.992;10.158;2023-02-03T01:48:27;1.03;;;0.97;;
7233;SDS011;3658;47.992;10.158;2023-02-03T01:50:56;0.97;;;0.90;;
7233;SDS011;3658;47.992;10.158;2023-02-03T01:53:24;1.40;;;1.13;;
7233;SDS011;3658;47.992;10.158;2023-02-03T01:55:53;1.30;;;1.20;;
7233;SDS011;3658;47.992;10.158;2023-02-03T01:58:20;1.10;;;1.00;;
7233;SDS011;3658;47.992;10.158;2023-02-03T02:00:50;1.13;;;1.00;;
7233;SDS011;3658;47.992;10.158;2023-02-03T02:03:18;1.20;;;1.10;;
7233;SDS011;3658;47.992;10.158;2023-02-03T02:05:49;1.43;;;1.20;;
7233;SDS011;3658;47.992;10.158;2023-02-03T02:08:19;1.47;;;0.93;;
7233;SDS011;3658;47.992;10.158;2023-02-03T02:10:47;1.30;;;1.20;;
7233;SDS011;3658;47.992;10.158;2023-02-03T02:13:16;1.10;;;1.00;;
7233;SDS011;3658;47.992;10.158;2023-02-03T02:15:47;1.20;;;1.00;;
7233;SDS011;3658;47.992;10.158;2023-02-03T02:18:28;1.20;;;1.10;;
7233;SDS011;3658;47.992;10.158;2023-02-03T02:24:23;1.20;;;0.93;;
7233;SDS011;3658;47.992;10.158;2023-02-03T02:27:17;1.80;;;1.10;;
7233;SDS011;3658;47.992;10.158;2023-02-03T02:30:07;1.10;;;1.00;;
7233;SDS011;3658;47.992;10.158;2023-02-03T02:32:54;1.10;;;1.00;;
7233;SDS011;3658;47.992;10.158;2023-02-03T02:35:31;2.47;;;1.13;;
7233;SDS011;3658;47.992;10.158;2023-02-03T02:38:12;1.60;;;1.20;;
7233;SDS011;3658;47.992;10.158;2023-02-03T02:40:49;1.00;;;0.80;;
7233;SDS011;3658;47.992;10.158;2023-02-03T02:43:22;1.37;;;1.10;;
7233;SDS011;3658;47.992;10.158;2023-02-03T02:45:55;1.47;;;0.83;;
7233;SDS011;3658;47.992;10.158;2023-02-03T02:48:28;1.30;;;1.10;;
7233;SDS011;3658;47.992;10.158;2023-02-03T02:51:01;1.00;;;1.00;;
7233;SDS011;3658;47.992;10.158;2023-02-03T02:53:31;1.00;;;0.90;;
7233;SDS011;3658;47.992;10.158;2023-02-03T02:56:02;0.90;;;0.90;;
7233;SDS011;3658;47.992;10.158;2023-02-03T02:58:33;1.30;;;1.00;;
7233;SDS011;3658;47.992;10.158;2023-02-03T03:01:01;1.10;;;1.00;;
7233;SDS011;3658;47.992;10.158;2023-02-03T03:03:29;1.57;;;1.00;;
7233;SDS011;3658;47.992;10.158;2023-02-03T03:05:57;1.20;;;1.10;;
7233;SDS011;3658;47.992;10.158;2023-02-03T03:08:29;1.07;;;0.97;;
7233;SDS011;3658;47.992;10.158;2023-02-03T03:11:02;1.23;;;1.10;;
7233;SDS011;3658;47.992;10.158;2023-02-03T03:13:31;1.07;;;0.87;;
7233;SDS011;3658;47.992;10.158;2023-02-03T03:16:02;0.90;;;0.90;;
7233;SDS011;3658;47.992;10.158;2023-02-03T03:18:33;0.70;;;0.70;;
7233;SDS011;3658;47.992;10.158;2023-02-03T03:21:07;1.10;;;1.00;;
7233;SDS011;3658;47.992;10.158;2023-02-03T03:23:39;1.17;;;0.83;;
7233;SDS011;3658;47.992;10.158;2023-02-03T03:26:10;1.33;;;1.10;;
7233;SDS011;3658;47.992;10.158;2023-02-03T03:28:45;0.80;;;0.80;;
7233;SDS011;3658;47.992;10.158;2023-02-03T03:31:15;1.40;;;1.00;;
7233;SDS011;3658;47.992;10.158;2023-02-03T03:33:44;0.93;;;0.83;;
7233;SDS011;3658;47.992;10.158;2023-02-03T03:36:16;1.13;;;0.90;;
7233;SDS011;3658;47.992;10.158;2023-02-03T03:38:49;1.33;;;1.00;;
7233;SDS011;3658;47.992;10.158;2023-02-03T03:41:24;1.20;;;1.00;;
7233;SDS011;3658;47.992;10.158;2023-02-03T03:43:56;0.90;;;0.90;;
7233;SDS011;3658;47.992;10.158;2023-02-03T03:46:27;0.90;;;0.90;;
7233;SDS011;3658;47.992;10.158;2023-02-03T03:49:02;0.93;;;0.87;;
7233;SDS011;3658;47.992;10.158;2023-02-03T03:51:32;1.63;;;1.20;;
7233;SDS011;3658;47.992;10.158;2023-02-03T03:54:03;1.07;;;0.97;;
7233;SDS011;3658;47.992;10.158;2023-02-03T03:56:34;1.10;;;0.90;;
7233;SDS011;3658;47.992;10.158;2023-02-03T03:59:05;1.10;;;0.90;;
7233;SDS011;3658;47.992;10.158;2023-02-03T04:01:35;0.90;;;0.90;;
7233;SDS011;3658;47.992;10.158;2023-02-03T04:04:06;1.10;;;1.00;;
7233;SDS011;3658;47.992;10.158;2023-02-03T04:06:36;0.90;;;0.90;;
7233;SDS011;3658;47.992;10.158;2023-02-03T04:09:04;1.30;;;1.07;;
7233;SDS011;3658;47.992;10.158;2023-02-03T04:11:31;1.17;;;0.90;;
7233;SDS011;3658;47.992;10.158;2023-02-03T04:14:16;1.17;;;1.07;;
7233;SDS011;3658;47.992;10.158;2023-02-03T04:16:42;1.07;;;0.97;;
7233;SDS011;3658;47.992;10.158;2023-02-03T04:19:11;0.93;;;0.90;;
7233;SDS011;3658;47.992;10.158;2023-02-03T04:21:38;1.13;;;0.90;;
7233;SDS011;3658;47.992;10.158;2023-02-03T04:24:05;0.83;;;0.80;;
7233;SDS011;3658;47.992;10.158;2023-02-03T04:26:32;1.23;;;1.00;;
7233;SDS011;3658;47.992;10.158;2023-02-03T04:28:59;1.00;;;0.90;;
7233;SDS011;3658;47.992;10.158;2023-02-03T04:31:26;1.10;;;1.00;;
7233;SDS011;3658;47.992;10.158;2023-02-03T04:33:53;1.10;;;1.00;;
7233;SDS011;3658;47.992;10.158;2023-02-03T04:36:21;1.13;;;0.70;;
7233;SDS011;3658;47.992;10.158;2023-02-03T04:38:48;1.00;;;0.80;;
7233;SDS011;3658;47.992;10.158;2023-02-03T04:41:15;1.93;;;0.97;;
7233;SDS011;3658;47.992;10.158;2023-02-03T04:43:42;0.80;;;0.80;;
7233;SDS011;3658;47.992;10.158;2023-02-03T04:46:09;1.23;;;1.00;;
7233;SDS011;3658;47.992;10.158;2023-02-03T04:48:36;0.80;;;0.80;;
7233;SDS011;3658;47.992;10.158;2023-02-03T04:51:03;1.13;;;1.00;;
7233;SDS011;3658;47.992;10.158;2023-02-03T04:53:33;1.10;;;1.00;;
7233;SDS011;3658;47.992;10.158;2023-02-03T04:56:01;0.70;;;0.70;;
7233;SDS011;3658;47.992;10.158;2023-02-03T04:58:28;0.90;;;0.90;;
7233;SDS011;3658;47.992;10.158;2023-02-03T05:00:55;1.23;;;1.00;;
7233;SDS011;3658;47.992;10.158;2023-02-03T05:03:21;1.00;;;0.90;;
7233;SDS011;3658;47.992;10.158;2023-02-03T05:05:48;1.00;;;1.00;;
7233;SDS011;3658;47.992;10.158;2023-02-03T05:08:16;1.20;;;1.00;;
7233;SDS011;3658;47.992;10.158;2023-02-03T05:10:44;1.67;;;1.10;;
7233;SDS011;3658;47.992;10.158;2023-02-03T05:13:11;0.90;;;0.90;;
7233;SDS011;3658;47.992;10.158;2023-02-03T05:15:38;0.80;;;0.80;;
7233;SDS011;3658;47.992;10.158;2023-02-03T05:18:05;1.10;;;1.00;;
7233;SDS011;3658;47.992;10.158;2023-02-03T05:20:32;0.80;;;0.80;;
7233;SDS011;3658;47.992;10.158;2023-02-03T05:22:59;1.03;;;1.00;;
7233;SDS011;3658;47.992;10.158;2023-02-03T05:25:26;1.10;;;0.87;;
7233;SDS011;3658;47.992;10.158;2023-02-03T05:27:54;1.40;;;0.90;;
7233;SDS011;3658;47.992;10.158;2023-02-03T05:30:21;1.60;;;1.00;;
7233;SDS011;3658;47.992;10.158;2023-02-03T05:32:48;0.90;;;0.90;;
7233;SDS011;3658;47.992;10.158;2023-02-03T05:35:15;0.80;;;0.80;;
7233;SDS011;3658;47.992;10.158;2023-02-03T05:37:42;0.70;;;0.70;;
7233;SDS011;3658;47.992;10.158;2023-02-03T05:40:11;0.80;;;0.80;;
7233;SDS011;3658;47.992;10.158;2023-02-03T05:42:57;1.53;;;1.00;;
7233;SDS011;3658;47.992;10.158;2023-02-03T05:45:24;1.13;;;1.00;;
7233;SDS011;3658;47.992;10.158;2023-02-03T05:47:51;0.90;;;0.90;;
7233;SDS011;3658;47.992;10.158;2023-02-03T05:50:18;1.10;;;0.90;;
7233;SDS011;3658;47.992;10.158;2023-02-03T05:52:47;2.20;;;1.10;;
7233;SDS011;3658;47.992;10.158;2023-02-03T05:55:14;1.20;;;1.00;;
7233;SDS011;3658;47.992;10.158;2023-02-03T05:57:41;1.40;;;0.90;;
7233;SDS011;3658;47.992;10.158;2023-02-03T06:00:10;0.80;;;0.80;;
7233;SDS011;3658;47.992;10.158;2023-02-03T06:02:39;1.67;;;1.17;;
7233;SDS011;3658;47.992;10.158;2023-02-03T06:05:06;3.13;;;0.90;;
7233;SDS011;3658;47.992;10.158;2023-02-03T06:07:34;1.30;;;1.20;;
7233;SDS011;3658;47.992;10.158;2023-02-03T06:10:02;1.33;;;0.97;;
7233;SDS011;3658;47.992;10.158;2023-02-03T06:12:30;1.47;;;1.00;;
7233;SDS011;3658;47.992;10.158;2023-02-03T06:14:57;3.07;;;1.30;;
7233;SDS011;3658;47.992;10.158;2023-02-03T06:17:25;2.60;;;0.93;;
7233;SDS011;3658;47.992;10.158;2023-02-03T06:19:52;2.37;;;1.10;;
7233;SDS011;3658;47.992;10.158;2023-02-03T06:22:19;4.07;;;1.00;;
7233;SDS011;3658;47.992;10.158;2023-02-03T06:24:46;1.10;;;1.00;;
7233;SDS011;3658;47.992;10.158;2023-02-03T06:27:13;5.13;;;1.10;;
7233;SDS011;3658;47.992;10.158;2023-02-03T06:29:40;1.50;;;1.13;;
7233;SDS011;3658;47.992;10.158;2023-02-03T06:32:08;2.23;;;0.90;;
7233;SDS011;3658;47.992;10.158;2023-02-03T06:34:36;1.07;;;0.87;;
7233;SDS011;3658;47.992;10.158;2023-02-03T06:37:03;7.60;;;1.30;;
7233;SDS011;3658;47.992;10.158;2023-02-03T06:39:30;2.40;;;0.97;;
7233;SDS011;3658;47.992;10.158;2023-02-03T06:41:57;1.27;;;0.90;;
7233;SDS011;3658;47.992;10.158;2023-02-03T06:44:24;2.27;;;0.87;;
7233;SDS011;3658;47.992;10.158;2023-02-03T06:46:51;1.70;;;0.90;;
7233;SDS011;3658;47.992;10.158;2023-02-03T06:49:18;1.53;;;1.07;;
7233;SDS011;3658;47.992;10.158;2023-02-03T06:51:47;1.43;;;0.97;;
7233;SDS011;3658;47.992;10.158;2023-02-03T06:54:14;1.60;;;1.17;;
7233;SDS011;3658;47.992;10.158;2023-02-03T06:56:41;3.10;;;1.10;;
7233;SDS011;3658;47.992;10.158;2023-02-03T06:59:08;2.27;;;1.30;;
7233;SDS011;3658;47.992;10.158;2023-02-03T07:01:35;4.40;;;1.30;;
7233;SDS011;3658;47.992;10.158;2023-02-03T07:04:02;3.00;;;1.40;;
7233;SDS011;3658;47.992;10.158;2023-02-03T07:06:30;2.67;;;1.70;;
7233;SDS011;3658;47.992;10.158;2023-02-03T07:08:59;2.23;;;1.73;;
7233;SDS011;3658;47.992;10.158;2023-02-03T07:11:27;5.10;;;1.80;;
7233;SDS011;3658;47.992;10.158;2023-02-03T07:13:54;3.60;;;1.80;;
7233;SDS011;3658;47.992;10.158;2023-02-03T07:16:21;2.57;;;1.63;;
7233;SDS011;3658;47.992;10.158;2023-02-03T07:18:48;1.93;;;1.50;;
7233;SDS011;3658;47.992;10.158;2023-02-03T07:21:15;1.63;;;1.53;;
7233;SDS011;3658;47.992;10.158;2023-02-03T07:23:45;2.33;;;1.70;;
7233;SDS011;3658;47.992;10.158;2023-02-03T07:26:15;2.03;;;1.60;;
7233;SDS011;3658;47.992;10.158;2023-02-03T07:28:42;2.00;;;1.80;;
7233;SDS011;3658;47.992;10.158;2023-02-03T07:31:09;2.77;;;1.80;;
7233;SDS011;3658;47.992;10.158;2023-02-03T07:33:37;2.13;;;1.20;;
7233;SDS011;3658;47.992;10.158;2023-02-03T07:36:04;2.03;;;1.50;;
7233;SDS011;3658;47.992;10.158;2023-02-03T07:38:32;1.77;;;1.60;;
7233;SDS011;3658;47.992;10.158;2023-02-03T07:40:59;2.00;;;1.50;;
7233;SDS011;3658;47.992;10.158;2023-02-03T07:43:27;2.00;;;1.40;;
7233;SDS011;3658;47.992;10.158;2023-02-03T07:45:54;3.80;;;1.60;;
7233;SDS011;3658;47.992;10.158;2023-02-03T07:48:21;1.47;;;1.17;;
7233;SDS011;3658;47.992;10.158;2023-02-03T07:50:49;1.77;;;1.53;;
7233;SDS011;3658;47.992;10.158;2023-02-03T07:53:17;1.40;;;1.20;;
7233;SDS011;3658;47.992;10.158;2023-02-03T07:55:44;1.27;;;1.13;;
7233;SDS011;3658;47.992;10.158;2023-02-03T07:58:11;1.57;;;1.40;;
7233;SDS011;3658;47.992;10.158;2023-02-03T08:00:40;2.37;;;1.20;;
7233;SDS011;3658;47.992;10.158;2023-02-03T08:03:07;4.20;;;1.40;;
7233;SDS011;3658;47.992;10.158;2023-02-03T08:05:34;2.00;;;1.60;;
7233;SDS011;3658;47.992;10.158;2023-02-03T08:08:02;1.77;;;1.43;;
7233;SDS011;3658;47.992;10.158;2023-02-03T08:10:29;1.47;;;1.30;;
7233;SDS011;3658;47.992;10.158;2023-02-03T08:12:56;2.10;;;1.30;;
7233;SDS011;3658;47.992;10.158;2023-02-03T08:15:23;1.87;;;1.50;;
7233;SDS011;3658;47.992;10.158;2023-02-03T08:17:52;1.73;;;1.23;;
7233;SDS011;3658;47.992;10.158;2023-02-03T08:20:19;1.30;;;1.20;;
7233;SDS011;3658;47.992;10.158;2023-02-03T08:22:46;1.87;;;1.40;;
7233;SDS011;3658;47.992;10.158;2023-02-03T08:25:13;1.27;;;1.17;;
7233;SDS011;3658;47.992;10.158;2023-02-03T08:27:40;1.40;;;1.30;;
7233;SDS011;3658;47.992;10.158;2023-02-03T08:30:08;1.80;;;1.60;;
7233;SDS011;3658;47.992;10.158;2023-02-03T08:32:38;2.40;;;1.30;;
7233;SDS011;3658;47.992;10.158;2023-02-03T08:35:07;1.40;;;1.30;;
7233;SDS011;3658;47.992;10.158;2023-02-03T08:37:34;1.20;;;1.10;;
7233;SDS011;3658;47.992;10.158;2023-02-03T08:40:01;1.30;;;1.20;;
7233;SDS011;3658;47.992;10.158;2023-02-03T08:42:29;2.37;;;1.40;;
7233;SDS011;3658;47.992;10.158;2023-02-03T08:44:56;1.30;;;1.20;;
7233;SDS011;3658;47.992;10.158;2023-02-03T08:47:24;2.40;;;1.30;;
7233;SDS011;3658;47.992;10.158;2023-02-03T08:49:51;1.30;;;1.20;;
7233;SDS011;3658;47.992;10.158;2023-02-03T08:52:19;1.53;;;1.40;;
7233;SDS011;3658;47.992;10.158;2023-02-03T08:54:47;1.63;;;1.20;;
7233;SDS011;3658;47.992;10.158;2023-02-03T08:57:13;1.70;;;1.20;;
7233;SDS011;3658;47.992;10.158;2023-02-03T08:59:41;1.50;;;1.33;;
7233;SDS011;3658;47.992;10.158;2023-02-03T09:02:10;1.60;;;1.20;;
7233;SDS011;3658;47.992;10.158;2023-02-03T09:04:40;1.40;;;1.30;;
7233;SDS011;3658;47.992;10.158;2023-02-03T09:07:07;1.20;;;1.10;;
7233;SDS011;3658;47.992;10.158;2023-02-03T09:09:36;1.60;;;1.50;;
7233;SDS011;3658;47.992;10.158;2023-02-03T09:12:04;1.60;;;1.30;;
7233;SDS011;3658;47.992;10.158;2023-02-03T09:14:32;1.43;;;1.30;;
7233;SDS011;3658;47.992;10.158;2023-02-03T09:16:59;1.57;;;1.40;;
7233;SDS011;3658;47.992;10.158;2023-02-03T09:19:27;1.50;;;1.27;;
7233;SDS011;3658;47.992;10.158;2023-02-03T09:21:54;1.30;;;1.20;;
7233;SDS011;3658;47.992;10.158;2023-02-03T09:24:21;1.40;;;1.30;;
7233;SDS011;3658;47.992;10.158;2023-02-03T09:26:50;1.20;;;1.10;;
7233;SDS011;3658;47.992;10.158;2023-02-03T09:29:18;1.30;;;1.13;;
7233;SDS011;3658;47.992;10.158;2023-02-03T09:31:47;1.67;;;1.10;;
7233;SDS011;3658;47.992;10.158;2023-02-03T09:34:16;1.33;;;1.10;;
7233;SDS011;3658;47.992;10.158;2023-02-03T09:36:44;1.77;;;1.20;;
7233;SDS011;3658;47.992;10.158;2023-02-03T09:39:11;1.43;;;1.20;;
7233;SDS011;3658;47.992;10.158;2023-02-03T09:41:58;1.30;;;1.20;;
7233;SDS011;3658;47.992;10.158;2023-02-03T09:44:45;1.20;;;1.10;;
7233;SDS011;3658;47.992;10.158;2023-02-03T09:47:21;1.20;;;1.10;;
7233;SDS011;3658;47.992;10.158;2023-02-03T09:49:52;1.10;;;1.00;;
7233;SDS011;3658;47.992;10.158;2023-02-03T09:52:24;1.40;;;1.30;;
7233;SDS011;3658;47.992;10.158;2023-02-03T09:54:53;1.53;;;1.10;;
7233;SDS011;3658;47.992;10.158;2023-02-03T09:57:27;1.40;;;1.30;;
7233;SDS011;3658;47.992;10.158;2023-02-03T09:59:56;1.30;;;1.20;;
7233;SDS011;3658;47.992;10.158;2023-02-03T10:02:34;1.40;;;1.30;;
7233;SDS011;3658;47.992;10.158;2023-02-03T10:05:13;2.23;;;1.70;;
7233;SDS011;3658;47.992;10.158;2023-02-03T10:07:47;3.50;;;1.70;;
7233;SDS011;3658;47.992;10.158;2023-02-03T10:10:24;2.23;;;1.60;;
7233;SDS011;3658;47.992;10.158;2023-02-03T10:13:07;4.97;;;1.60;;
7233;SDS011;3658;47.992;10.158;2023-02-03T10:15:44;1.50;;;1.40;;
7233;SDS011;3658;47.992;10.158;2023-02-03T10:18:31;3.30;;;1.60;;
7233;SDS011;3658;47.992;10.158;2023-02-03T10:21:05;1.97;;;1.27;;
7233;SDS011;3658;47.992;10.158;2023-02-03T10:23:41;2.20;;;1.60;;
7233;SDS011;3658;47.992;10.158;2023-02-03T10:26:13;2.13;;;1.17;;
7233;SDS011;3658;47.992;10.158;2023-02-03T10:28:45;2.80;;;1.50;;
7233;SDS011;3658;47.992;10.158;2023-02-03T10:31:20;2.20;;;1.33;;
7233;SDS011;3658;47.992;10.158;2023-02-03T10:33:49;2.57;;;1.43;;
7233;SDS011;3658;47.992;10.158;2023-02-03T10:36:24;4.30;;;1.53;;
7233;SDS011;3658;47.992;10.158;2023-02-03T10:38:59;3.17;;;1.70;;
7233;SDS011;3658;47.992;10.158;2023-02-03T10:41:35;1.30;;;1.20;;
7233;SDS011;3658;47.992;10.158;2023-02-03T10:44:05;3.27;;;1.50;;
7233;SDS011;3658;47.992;10.158;2023-02-03T10:46:35;1.40;;;1.23;;
7233;SDS011;3658;47.992;10.158;2023-02-03T10:49:06;1.60;;;1.20;;
7233;SDS011;3658;47.992;10.158;2023-02-03T10:51:35;1.63;;;1.53;;
7233;SDS011;3658;47.992;10.158;2023-02-03T10:54:04;1.50;;;1.37;;
7233;SDS011;3658;47.992;10.158;2023-02-03T10:56:54;2.10;;;1.27;;
7233;SDS011;3658;47.992;10.158;2023-02-03T10:59:29;1.87;;;1.27;;
7233;SDS011;3658;47.992;10.158;2023-02-03T11:01:59;1.47;;;1.17;;
7233;SDS011;3658;47.992;10.158;2023-02-03T11:04:32;2.27;;;1.40;;
7233;SDS011;3658;47.992;10.158;2023-02-03T11:06:59;2.63;;;1.40;;
7233;SDS011;3658;47.992;10.158;2023-02-03T11:09:35;2.43;;;1.50;;
7233;SDS011;3658;47.992;10.158;2023-02-03T11:12:09;3.50;;;1.43;;
7233;SDS011;3658;47.992;10.158;2023-02-03T11:14:40;4.30;;;1.33;;
7233;SDS011;3658;47.992;10.158;2023-02-03T11:17:13;4.53;;;1.50;;
7233;SDS011;3658;47.992;10.158;2023-02-03T11:19:42;4.50;;;1.37;;
7233;SDS011;3658;47.992;10.158;2023-02-03T11:22:11;3.10;;;1.20;;
7233;SDS011;3658;47.992;10.158;2023-02-03T11:24:39;2.10;;;1.40;;
7233;SDS011;3658;47.992;10.158;2023-02-03T11:27:09;2.43;;;1.50;;
7233;SDS011;3658;47.992;10.158;2023-02-03T11:29:42;2.30;;;1.30;;
7233;SDS011;3658;47.992;10.158;2023-02-03T11:32:15;2.80;;;1.33;;
7233;SDS011;3658;47.992;10.158;2023-02-03T11:34:46;2.07;;;1.50;;
7233;SDS011;3658;47.992;10.158;2023-02-03T11:37:27;2.10;;;1.20;;
7233;SDS011;3658;47.992;10.158;2023-02-03T11:40:11;1.40;;;1.30;;
7233;SDS011;3658;47.992;10.158;2023-02-03T11:43:00;1.77;;;1.30;;
7233;SDS011;3658;47.992;10.158;2023-02-03T11:45:33;1.50;;;1.30;;
7233;SDS011;3658;47.992;10.158;2023-02-03T11:48:13;2.43;;;1.23;;
7233;SDS011;3658;47.992;10.158;2023-02-03T11:50:48;2.30;;;1.20;;
7233;SDS011;3658;47.992;10.158;2023-02-03T11:53:21;1.90;;;1.27;;
7233;SDS011;3658;47.992;10.158;2023-02-03T11:56:04;2.37;;;1.30;;
7233;SDS011;3658;47.992;10.158;2023-02-03T11:59:07;1.83;;;1.20;;
7233;SDS011;3658;47.992;10.158;2023-02-03T12:01:55;1.60;;;1.10;;
7233;SDS011;3658;47.992;10.158;2023-02-03T12:04:47;1.73;;;1.10;;
7233;SDS011;3658;47.992;10.158;2023-02-03T12:07:37;1.60;;;1.20;;
7233;SDS011;3658;47.992;10.158;2023-02-03T12:10:16;1.30;;;1.10;;
7233;SDS011;3658;47.992;10.158;2023-02-03T12:12:54;2.03;;;1.27;;
7233;SDS011;3658;47.992;10.158;2023-02-03T12:15:32;2.70;;;1.20;;
7233;SDS011;3658;47.992;10.158;2023-02-03T12:18:30;1.43;;;1.20;;
7233;SDS011;3658;47.992;10.158;2023-02-03T12:21:10;2.50;;;1.20;;
7233;SDS011;3658;47.992;10.158;2023-02-03T12:23:54;2.33;;;1.33;;
7233;SDS011;3658;47.992;10.158;2023-02-03T12:26:29;2.47;;;1.23;;
7233;SDS011;3658;47.992;10.158;2023-02-03T12:29:05;1.40;;;0.97;;
7233;SDS011;3658;47.992;10.158;2023-02-03T12:31:37;1.47;;;1.23;;
7233;SDS011;3658;47.992;10.158;2023-02-03T12:34:16;1.70;;;1.23;;
7233;SDS011;3658;47.992;10.158;2023-02-03T12:36:49;1.30;;;1.20;;
7233;SDS011;3658;47.992;10.158;2023-02-03T12:39:24;2.07;;;1.30;;
7233;SDS011;3658;47.992;10.158;2023-02-03T12:41:55;2.20;;;1.10;;
7233;SDS011;3658;47.992;10.158;2023-02-03T12:44:28;1.17;;;1.07;;
7233;SDS011;3658;47.992;10.158;2023-02-03T12:47:00;1.00;;;0.90;;
7233;SDS011;3658;47.992;10.158;2023-02-03T12:49:35;2.50;;;1.00;;
7233;SDS011;3658;47.992;10.158;2023-02-03T12:52:10;1.50;;;1.20;;
7233;SDS011;3658;47.992;10.158;2023-02-03T12:54:45;1.93;;;1.37;;
7233;SDS011;3658;47.992;10.158;2023-02-03T12:57:19;1.17;;;1.07;;
7233;SDS011;3658;47.992;10.158;2023-02-03T12:59:57;1.10;;;1.00;;
7233;SDS011;3658;47.992;10.158;2023-02-03T13:02:33;1.60;;;1.07;;
7233;SDS011;3658;47.992;10.158;2023-02-03T13:05:16;3.27;;;1.00;;
7233;SDS011;3658;47.992;10.158;2023-02-03T13:07:47;3.80;;;1.30;;
7233;SDS011;3658;47.992;10.158;2023-02-03T13:10:18;8.60;;;2.13;;
7233;SDS011;3658;47.992;10.158;2023-02-03T13:12:52;4.87;;;1.77;;
7233;SDS011;3658;47.992;10.158;2023-02-03T13:15:24;11.07;;;1.47;;
7233;SDS011;3658;47.992;10.158;2023-02-03T13:17:56;3.33;;;1.50;;
7233;SDS011;3658;47.992;10.158;2023-02-03T13:20:30;2.17;;;1.50;;
7233;SDS011;3658;47.992;10.158;2023-02-03T13:23:00;4.47;;;1.53;;
7233;SDS011;3658;47.992;10.158;2023-02-03T13:25:31;9.60;;;1.60;;
7233;SDS011;3658;47.992;10.158;2023-02-03T13:28:11;4.10;;;1.40;;
7233;SDS011;3658;47.992;10.158;2023-02-03T13:31:00;2.47;;;1.20;;
7233;SDS011;3658;47.992;10.158;2023-02-03T13:33:43;5.43;;;1.53;;
7233;SDS011;3658;47.992;10.158;2023-02-03T13:36:47;2.30;;;1.30;;
7233;SDS011;3658;47.992;10.158;2023-02-03T13:39:52;5.37;;;1.47;;
7233;SDS011;3658;47.992;10.158;2023-02-03T13:42:29;4.37;;;1.47;;
7233;SDS011;3658;47.992;10.158;2023-02-03T13:44:58;3.37;;;1.30;;
7233;SDS011;3658;47.992;10.158;2023-02-03T13:47:30;2.47;;;1.40;;
7233;SDS011;3658;47.992;10.158;2023-02-03T13:49:58;5.13;;;1.33;;
7233;SDS011;3658;47.992;10.158;2023-02-03T13:52:33;3.97;;;1.30;;
7233;SDS011;3658;47.992;10.158;2023-02-03T13:55:02;2.77;;;1.30;;
7233;SDS011;3658;47.992;10.158;2023-02-03T13:57:31;1.30;;;1.00;;
7233;SDS011;3658;47.992;10.158;2023-02-03T14:00:01;2.40;;;1.57;;
7233;SDS011;3658;47.992;10.158;2023-02-03T14:17:08;1.33;;;1.23;;
7233;SDS011;3658;47.992;10.158;2023-02-03T14:23:51;1.60;;;1.20;;
7233;SDS011;3658;47.992;10.158;2023-02-03T14:26:28;2.87;;;1.20;;
7233;SDS011;3658;47.992;10.158;2023-02-03T14:29:02;2.33;;;1.23;;
7233;SDS011;3658;47.992;10.158;2023-02-03T14:31:30;1.43;;;1.20;;
7233;SDS011;3658;47.992;10.158;2023-02-03T14:34:07;2.60;;;1.00;;
7233;SDS011;3658;47.992;10.158;2023-02-03T14:36:46;1.20;;;1.10;;
7233;SDS011;3658;47.992;10.158;2023-02-03T14:39:32;1.10;;;1.00;;
7233;SDS011;3658;47.992;10.158;2023-02-03T14:42:26;1.00;;;1.00;;
7233;SDS011;3658;47.992;10.158;2023-02-03T14:45:07;4.70;;;1.30;;
7233;SDS011;3658;47.992;10.158;2023-02-03T14:47:48;1.07;;;0.97;;
7233;SDS011;3658;47.992;10.158;2023-02-03T14:50:29;1.07;;;0.97;;
7233;SDS011;3658;47.992;10.158;2023-02-03T14:56:03;2.73;;;1.27;;
7233;SDS011;3658;47.992;10.158;2023-02-03T14:58:40;2.00;;;1.10;;
7233;SDS011;3658;47.992;10.158;2023-02-03T15:01:22;0.90;;;0.90;;
7233;SDS011;3658;47.992;10.158;2023-02-03T15:06:48;1.93;;;1.20;;
7233;SDS011;3658;47.992;10.158;2023-02-03T15:09:18;1.00;;;0.97;;
7233;SDS011;3658;47.992;10.158;2023-02-03T15:11:52;1.00;;;0.90;;
7233;SDS011;3658;47.992;10.158;2023-02-03T15:14:21;1.67;;;1.10;;
7233;SDS011;3658;47.992;10.158;2023-02-03T15:16:51;0.90;;;0.90;;
7233;SDS011;3658;47.992;10.158;2023-02-03T15:19:21;1.00;;;1.00;;
7233;SDS011;3658;47.992;10.158;2023-02-03T15:21:50;1.13;;;1.03;;
7233;SDS011;3658;47.992;10.158;2023-02-03T15:24:18;2.37;;;1.17;;
7233;SDS011;3658;47.992;10.158;2023-02-03T15:26:48;0.90;;;0.90;;
7233;SDS011;3658;47.992;10.158;2023-02-03T15:29:26;1.23;;;1.13;;
7233;SDS011;3658;47.992;10.158;2023-02-03T15:32:00;2.20;;;1.30;;
7233;SDS011;3658;47.992;10.158;2023-02-03T15:34:32;1.30;;;1.10;;
7233;SDS011;3658;47.992;10.158;2023-02-03T15:37:05;1.67;;;1.03;;
7233;SDS011;3658;47.992;10.158;2023-02-03T15:39:37;0.80;;;0.80;;
7233;SDS011;3658;47.992;10.158;2023-02-03T15:42:13;2.67;;;1.20;;
7233;SDS011;3658;47.992;10.158;2023-02-03T15:44:47;1.10;;;1.00;;
7233;SDS011;3658;47.992;10.158;2023-02-03T15:47:24;0.90;;;0.90;;
7233;SDS011;3658;47.992;10.158;2023-02-03T15:50:01;1.10;;;0.80;;
7233;SDS011;3658;47.992;10.158;2023-02-03T15:52:41;1.10;;;1.00;;
7233;SDS011;3658;47.992;10.158;2023-02-03T15:55:13;1.20;;;1.10;;